Time;durP1;ratioP1;P1;durP2;ratioP2;P2;SDS_P1;SDS_P2;PMS_P1;PMS_P2;Temp;Humidity;BMP_temperature;BMP_pressure;BME280_temperature;BME280_humidity;BME280_pressure;Samples;Min_cycle;Max_cycle;Signal;HPM_P1;HPM_P2
2023/08/16 00:00:45;;;;;;;;;;;26.30;91.40;;;26.50;52.68;98860.69;4981428;28;119721;-77
2023/08/16 00:03:11;;;;;;;;;;;26.30;91.50;;;26.47;52.67;98873.66;4981326;28;123530;-77
2023/08/16 00:05:41;;;;;;;;;;;26.30;91.60;;;26.45;53.04;98876.88;4975471;28;124413;-78
2023/08/16 00:08:07;;;;;;;;;;;26.30;91.70;;;26.43;53.40;98879.34;4961321;28;118447;-76
2023/08/16 00:10:34;;;;;;;;;;;26.20;91.70;;;26.40;52.94;98868.84;4967700;28;118198;-76
2023/08/16 00:13:00;;;;;;;;;;;26.20;91.80;;;26.35;52.95;98874.94;4984482;28;124336;-77
2023/08/16 00:15:27;;;;;;;;;;;26.20;91.80;;;26.29;53.25;98870.16;4965872;28;122851;-76
2023/08/16 00:17:53;;;;;;;;;;;26.10;91.80;;;26.22;53.13;98866.16;4980800;28;120328;-76
2023/08/16 00:20:27;;;;;;;;;;;26.10;91.90;;;26.20;53.42;98864.97;4975754;28;119405;-76
2023/08/16 00:22:56;;;;;;;;;;;26.00;92.00;;;26.17;53.73;98852.44;4980607;28;124601;-76
2023/08/16 00:25:22;;;;;;;;;;;26.00;92.10;;;26.15;53.57;98845.59;4973390;28;124622;-76
2023/08/16 00:27:51;;;;;;;;;;;26.00;92.10;;;26.14;53.33;98835.47;4985623;28;119584;-76
2023/08/16 00:30:17;;;;;;;;;;;25.90;92.20;;;26.14;53.32;98827.81;4984348;28;118301;-75
2023/08/16 00:32:43;;;;;;;;;;;25.90;92.30;;;26.13;53.44;98819.72;4983561;28;123441;-76
2023/08/16 00:35:12;;;;;;;;;;;25.90;92.40;;;26.13;54.17;98834.66;4973274;28;123704;-75
2023/08/16 00:37:38;;;;;;;;;;;25.90;92.50;;;26.14;53.95;98847.63;5000281;28;120711;-76
2023/08/16 00:40:05;;;;;;;;;;;25.90;92.70;;;26.14;53.97;98858.13;4970594;28;119543;-76
2023/08/16 00:42:31;;;;;;;;;;;25.90;92.80;;;26.13;54.54;98856.53;4969135;28;124246;-76
2023/08/16 00:44:58;;;;;;;;;;;25.90;92.90;;;26.10;54.28;98857.34;4972608;28;123803;-77
2023/08/16 00:47:24;;;;;;;;;;;25.80;93.00;;;26.06;54.76;98843.25;4982260;28;120498;-76
2023/08/16 00:49:51;;;;;;;;;;;25.80;93.00;;;25.98;54.96;98848.16;4987261;28;120214;-76
2023/08/16 00:52:17;;;;;;;;;;;25.80;93.10;;;25.91;55.11;98836.06;4993470;28;124309;-76
2023/08/16 00:54:44;;;;;;;;;;;25.80;93.20;;;25.82;55.19;98836.50;4969195;28;124080;-76
2023/08/16 00:57:10;;;;;;;;;;;25.70;93.30;;;25.79;55.00;98840.97;4985654;28;119580;-77
2023/08/16 00:59:37;;;;;;;;;;;25.60;93.40;;;25.81;55.48;98849.03;4974630;28;118827;-77
2023/08/16 01:02:03;;;;;;;;;;;25.60;93.50;;;25.81;55.80;98845.41;4987213;28;124241;-76
2023/08/16 01:04:30;;;;;;;;;;;25.60;93.70;;;25.78;55.76;98844.19;4984947;28;123961;-76
2023/08/16 01:07:00;;;;;;;;;;;25.50;93.90;;;25.72;56.04;98835.34;4978757;28;119994;-76
2023/08/16 01:09:26;;;;;;;;;;;25.50;94.00;;;25.69;55.75;98824.06;4971119;28;118897;-76
2023/08/16 01:11:55;;;;;;;;;;;25.50;94.00;;;25.69;55.89;98818.38;4982337;28;124587;-76
2023/08/16 01:14:29;;;;;;;;;;;25.50;94.10;;;25.69;56.14;98821.22;4969677;28;124029;-76
2023/08/16 01:16:56;;;;;;;;;;;25.50;94.20;;;25.70;55.98;98820.78;4971961;28;119489;-76
2023/08/16 01:19:28;;;;;;;;;;;25.50;94.30;;;25.71;56.19;98810.28;4982740;28;117861;-76
2023/08/16 01:22:19;;;;;;;;;;;25.50;94.50;;;25.68;56.38;98819.59;4993500;28;123062;-76
2023/08/16 01:25:13;;;;;;;;;;;25.50;94.50;;;25.68;56.51;98823.22;4977213;28;125826;-76
2023/08/16 01:27:39;;;;;;;;;;;25.40;94.60;;;25.67;56.41;98818.78;4984521;28;120821;-76
2023/08/16 01:30:08;;;;;;;;;;;25.40;94.70;;;25.65;56.20;98820.41;4970494;28;117704;-76
2023/08/16 01:32:36;;;;;;;;;;;25.40;94.70;;;25.63;56.51;98825.69;4982551;28;123864;-76
2023/08/16 01:35:03;;;;;;;;;;;25.40;95.10;;;25.62;56.79;98821.25;4989718;28;122715;-76
2023/08/16 01:37:30;;;;;;;;;;;25.40;94.90;;;25.60;56.81;98827.31;4990913;28;119309;-76
2023/08/16 01:40:04;;;;;;;;;;;25.30;95.00;;;25.60;57.06;98816.00;4980321;28;119662;-76
2023/08/16 01:42:36;;;;;;;;;;;25.30;95.00;;;25.61;56.91;98816.81;4979072;28;124414;-75
2023/08/16 01:45:04;;;;;;;;;;;25.30;95.10;;;25.61;56.83;98805.50;4969494;28;124306;-75
2023/08/16 01:47:30;;;;;;;;;;;25.30;95.10;;;25.59;56.64;98807.94;4991623;28;120191;-76
2023/08/16 01:49:59;;;;;;;;;;;25.30;95.10;;;25.57;56.58;98806.31;4992330;28;118833;-76
2023/08/16 01:52:26;;;;;;;;;;;25.30;95.10;;;25.54;56.67;98807.13;4989023;28;123575;-76
2023/08/16 01:54:52;;;;;;;;;;;25.30;95.20;;;25.55;56.70;98807.97;4974242;28;122328;-76
2023/08/16 01:57:19;;;;;;;;;;;25.30;95.20;;;25.54;56.99;98804.31;4974665;28;119389;-76
2023/08/16 01:59:45;;;;;;;;;;;25.30;95.20;;;25.54;56.58;98812.78;4982421;28;118789;-76
2023/08/16 02:02:14;;;;;;;;;;;25.30;95.30;;;25.51;56.57;98802.31;4977462;28;124756;-76
2023/08/16 02:04:40;;;;;;;;;;;25.20;95.20;;;25.49;57.16;98810.41;4981122;28;124157;-76
2023/08/16 02:07:11;;;;;;;;;;;25.20;95.30;;;25.47;56.81;98809.19;4968997;28;119375;-76
2023/08/16 02:09:37;;;;;;;;;;;25.20;95.40;;;25.44;57.29;98810.88;4988802;28;118820;-76
2023/08/16 02:12:04;;;;;;;;;;;25.20;95.40;;;25.40;56.90;98795.13;4970308;28;124242;-76
2023/08/16 02:14:30;;;;;;;;;;;25.10;95.40;;;25.39;56.89;98793.50;4988751;28;124056;-76
2023/08/16 02:16:57;;;;;;;;;;;25.10;95.50;;;25.36;57.15;98800.78;4970231;28;119433;-76
2023/08/16 02:19:23;;;;;;;;;;;25.10;95.60;;;25.35;57.27;98804.84;4982057;28;118506;-76
2023/08/16 02:21:50;;;;;;;;;;;25.10;95.60;;;25.33;57.58;98791.13;4982258;28;124803;-76
2023/08/16 02:24:16;;;;;;;;;;;25.10;95.60;;;25.31;57.68;98792.75;4984739;28;123891;-76
2023/08/16 02:26:42;;;;;;;;;;;25.10;95.70;;;25.28;57.91;98787.88;4994647;28;120524;-76
2023/08/16 02:29:08;;;;;;;;;;;25.00;95.70;;;25.25;57.89;98785.88;4983364;28;119446;-76
2023/08/16 02:31:35;;;;;;;;;;;25.00;95.80;;;25.23;57.60;98788.34;4987382;28;124316;-76
2023/08/16 02:34:01;;;;;;;;;;;25.00;95.90;;;25.21;58.09;98782.28;4970008;28;124327;-76
2023/08/16 02:36:28;;;;;;;;;;;25.00;96.10;;;25.18;57.79;98783.13;4990567;28;118875;-76
2023/08/16 02:38:54;;;;;;;;;;;24.90;96.00;;;25.16;58.21;98774.22;4984615;28;118876;-75
2023/08/16 02:41:20;;;;;;;;;;;24.90;96.10;;;25.13;58.39;98770.97;4985378;28;123894;-75
2023/08/16 02:43:47;;;;;;;;;;;24.90;96.10;;;25.12;58.06;98769.38;4968430;28;123869;-75
2023/08/16 02:46:13;;;;;;;;;;;24.90;96.20;;;25.10;58.41;98766.16;4993422;28;119944;-75
2023/08/16 02:48:42;;;;;;;;;;;24.90;96.20;;;25.09;57.96;98770.19;4983868;28;118647;-76
2023/08/16 02:51:08;;;;;;;;;;;24.80;96.30;;;25.07;58.48;98766.97;4985498;28;124381;-77
2023/08/16 02:53:35;;;;;;;;;;;24.80;96.30;;;25.05;58.63;98771.44;4980029;28;123836;-75
2023/08/16 02:56:01;;;;;;;;;;;24.80;96.40;;;25.03;58.74;98771.81;4982065;28;118875;-81
2023/08/16 02:58:27;;;;;;;;;;;24.80;96.50;;;24.99;58.43;98773.88;4981906;28;118831;-76
2023/08/16 03:00:54;;;;;;;;;;;24.70;96.50;;;24.98;58.56;98777.91;4970980;28;124537;-76
2023/08/16 03:03:20;;;;;;;;;;;24.70;96.60;;;24.94;58.71;98774.28;4978103;28;123453;-76
2023/08/16 03:05:47;;;;;;;;;;;24.70;96.60;;;24.92;58.74;98776.72;4976241;28;118816;-75
2023/08/16 03:08:13;;;;;;;;;;;24.70;96.70;;;24.90;58.74;98773.50;4992285;28;118308;-76
2023/08/16 03:10:39;;;;;;;;;;;24.70;96.70;;;24.90;58.93;98773.50;4989153;28;124809;-75
2023/08/16 03:13:14;;;;;;;;;;;24.70;96.70;;;24.89;59.16;98774.72;4987665;28;123895;-76
2023/08/16 03:15:40;;;;;;;;;;;24.60;96.80;;;24.87;59.16;98786.41;4978166;28;120447;-76
2023/08/16 03:18:11;;;;;;;;;;;24.20;96.60;;;24.88;58.72;98785.22;4986385;28;120267;-75
2023/08/16 03:20:37;;;;;;;;;;;24.60;96.80;;;24.86;58.96;98790.47;4989065;28;123857;-76
2023/08/16 03:23:09;;;;;;;;;;;23.30;96.60;;;24.85;58.93;98793.69;4972912;28;124115;-75
2023/08/16 03:25:35;;;;;;;;;;;24.60;96.90;;;24.85;59.35;98800.19;4984616;28;119505;-75
2023/08/16 03:28:01;;;;;;;;;;;24.60;97.00;;;24.84;59.17;98809.06;4979707;28;119788;-75
2023/08/16 03:30:28;;;;;;;;;;;24.60;97.10;;;24.84;59.15;98814.72;4988627;28;124117;-76
2023/08/16 03:32:57;;;;;;;;;;;24.60;97.10;;;24.82;59.54;98814.31;4989784;28;123878;-75
2023/08/16 03:35:24;;;;;;;;;;;24.50;97.10;;;24.81;59.43;98826.84;4980624;28;119193;-75
2023/08/16 03:37:50;;;;;;;;;;;24.50;97.20;;;24.78;59.55;98828.44;4984312;28;118930;-76
2023/08/16 03:40:16;;;;;;;;;;;24.60;97.20;;;24.77;59.44;98823.19;4978281;28;124347;-75
2023/08/16 03:42:46;;;;;;;;;;;24.50;97.30;;;24.75;59.60;98828.47;4990180;28;122925;-76
2023/08/16 03:45:12;;;;;;;;;;;24.50;97.30;;;24.75;59.78;98834.13;4974842;28;119425;-76
2023/08/16 03:47:38;;;;;;;;;;;24.50;97.40;;;24.75;59.53;98839.78;4972673;28;117938;-75
2023/08/16 03:50:09;;;;;;;;;;;24.50;97.40;;;24.74;59.67;98843.78;4992994;28;124841;-76
2023/08/16 03:52:38;;;;;;;;;;;24.50;97.50;;;24.73;59.77;98859.16;4989734;28;123548;-76
2023/08/16 03:55:05;;;;;;;;;;;24.40;97.50;;;24.71;60.01;98861.56;4978753;28;118583;-76
2023/08/16 03:57:34;;;;;;;;;;;24.40;97.50;;;24.69;60.05;98884.59;4973956;28;118790;-77
2023/08/16 04:00:00;;;;;;;;;;;24.40;97.60;;;24.66;59.93;98885.38;4994235;28;123511;-76
2023/08/16 04:02:26;;;;;;;;;;;24.40;97.60;;;24.63;60.21;98906.78;4959238;28;123608;-76
2023/08/16 04:04:53;;;;;;;;;;;24.40;97.70;;;24.59;60.29;98917.28;4989711;28;119262;-76
2023/08/16 04:07:22;;;;;;;;;;;24.30;97.90;;;24.49;60.29;98915.25;4973321;28;120346;-77
2023/08/16 04:09:48;;;;;;;;;;;24.30;97.70;;;24.34;60.56;98905.97;4986026;28;124121;-76
2023/08/16 04:12:17;;;;;;;;;;;24.20;97.60;;;24.16;60.66;98905.94;4990328;28;123573;-76
2023/08/16 04:14:48;;;;;;;;;;;24.00;97.50;;;23.97;60.67;98909.13;4987837;28;117732;-77
2023/08/16 04:17:16;;;;;;;;;;;23.90;97.60;;;23.81;61.11;98907.47;4994372;28;118650;-77
2023/08/16 04:19:48;;;;;;;;;;;23.70;97.70;;;23.63;61.87;98920.69;4983334;28;125129;-76
2023/08/16 04:22:15;;;;;;;;;;;23.60;97.90;;;23.49;62.04;98907.34;4985625;28;123958;-77
2023/08/16 04:24:41;;;;;;;;;;;23.50;98.00;;;23.40;62.28;98912.56;4986602;28;119504;-75
2023/08/16 04:27:10;;;;;;;;;;;23.40;98.20;;;23.33;62.18;98916.13;4974091;28;118141;-76
2023/08/16 04:29:37;;;;;;;;;;;23.30;98.30;;;23.27;62.63;98912.09;4987509;28;124380;-76
2023/08/16 04:32:03;;;;;;;;;;;23.20;98.50;;;23.22;62.67;98909.66;4995855;28;123900;-75
2023/08/16 04:34:29;;;;;;;;;;;23.20;98.50;;;23.19;62.98;98907.63;4980878;28;119625;-76
2023/08/16 04:36:58;;;;;;;;;;;23.10;98.70;;;23.15;63.06;98901.94;4988667;28;118356;-76
2023/08/16 04:39:24;;;;;;;;;;;23.00;98.70;;;23.16;62.77;98897.13;4995261;28;123782;-76
2023/08/16 04:41:50;;;;;;;;;;;23.00;98.70;;;23.19;63.14;98901.19;4979438;28;124127;-77
2023/08/16 04:44:17;;;;;;;;;;;23.00;99.10;;;23.25;62.97;98903.22;4982758;28;119710;-76
2023/08/16 04:46:43;;;;;;;;;;;23.00;98.90;;;23.31;62.76;98893.16;4978865;28;118898;-77
2023/08/16 04:49:10;;;;;;;;;;;23.10;99.00;;;23.40;62.61;98908.91;4984974;28;124417;-77
2023/08/16 04:51:36;;;;;;;;;;;23.10;99.00;;;23.45;62.61;98906.50;4968672;28;122913;-77
2023/08/16 04:54:07;;;;;;;;;;;23.10;99.00;;;23.51;62.41;98898.50;4990730;28;120206;-76
2023/08/16 04:56:37;;;;;;;;;;;23.20;99.10;;;23.56;62.15;98889.63;4970407;28;118953;-77
2023/08/16 04:59:03;;;;;;;;;;;23.20;99.10;;;23.63;62.26;98878.38;4982997;28;124182;-77
2023/08/16 05:01:29;;;;;;;;;;;23.20;99.10;;;23.69;62.09;98870.31;4990600;28;124522;-76
2023/08/16 05:03:59;;;;;;;;;;;23.30;99.10;;;23.74;62.15;98876.41;4978362;28;119354;-76
2023/08/16 05:06:28;;;;;;;;;;;23.30;99.10;;;23.78;61.78;98868.78;4988332;28;119620;-76
2023/08/16 05:09:00;;;;;;;;;;;23.40;99.00;;;23.84;61.58;98860.72;4977591;28;124879;-76
2023/08/16 05:11:29;;;;;;;;;;;23.40;99.00;;;23.88;61.69;98855.88;4985415;28;124190;-76
2023/08/16 05:14:01;;;;;;;;;;;23.50;99.00;;;23.95;61.61;98866.38;4979666;28;119619;-76
2023/08/16 05:16:27;;;;;;;;;;;23.50;99.00;;;23.99;61.57;98867.19;4983889;28;118254;-75
2023/08/16 05:18:57;;;;;;;;;;;23.60;99.10;;;24.02;61.25;98855.13;4966976;28;124043;-80
2023/08/16 05:21:26;;;;;;;;;;;23.60;98.90;;;24.05;61.48;98851.50;4983750;28;123155;-80
2023/08/16 05:23:59;;;;;;;;;;;23.60;99.10;;;24.05;61.44;98857.13;4967540;28;119085;-80
2023/08/16 05:26:26;;;;;;;;;;;23.60;99.00;;;24.08;61.26;98853.50;4975208;28;118850;-80
2023/08/16 05:28:52;;;;;;;;;;;23.60;99.00;;;24.14;61.33;98857.53;4968998;28;124806;-82
2023/08/16 05:31:21;;;;;;;;;;;22.60;98.50;;;24.20;61.13;98850.25;4988414;28;124251;-81
2023/08/16 05:33:50;;;;;;;;;;;23.70;99.00;;;24.28;61.04;98856.72;4973825;28;119448;-81
2023/08/16 05:36:28;;;;;;;;;;;23.80;98.90;;;24.30;60.72;98861.97;4983032;28;118942;-80
2023/08/16 05:39:00;;;;;;;;;;;23.80;98.90;;;24.34;60.72;98865.59;4970910;28;124135;-81
2023/08/16 05:41:28;;;;;;;;;;;23.90;98.90;;;24.37;60.72;98867.63;4976863;28;123651;-82
2023/08/16 05:43:58;;;;;;;;;;;23.90;98.80;;;24.40;60.77;98870.44;4965626;28;119444;-81
2023/08/16 05:46:24;;;;;;;;;;;23.90;98.80;;;24.44;60.64;98879.75;4974641;28;119710;-81
2023/08/16 05:48:50;;;;;;;;;;;24.00;98.70;;;24.48;60.22;98871.28;4984688;28;124120;-81
2023/08/16 05:51:16;;;;;;;;;;;24.00;98.70;;;24.55;60.32;98876.13;4980783;28;123821;-81
2023/08/16 05:53:49;;;;;;;;;;;24.10;98.70;;;24.60;60.56;98873.69;4977206;28;119429;-81
2023/08/16 05:56:15;;;;;;;;;;;24.10;98.60;;;24.63;60.24;98870.03;4979521;28;118686;-81
2023/08/16 05:58:41;;;;;;;;;;;24.20;98.60;;;24.69;60.22;98862.78;4967261;28;124083;-80
2023/08/16 06:01:11;;;;;;;;;;;24.20;98.60;;;24.78;59.85;98878.53;4968701;28;123904;-80
2023/08/16 06:03:37;;;;;;;;;;;24.30;98.50;;;24.85;60.13;98870.84;4974793;28;119515;-81
2023/08/16 06:06:03;;;;;;;;;;;24.30;98.80;;;24.96;59.49;98869.97;4969389;28;119097;-82
2023/08/16 06:08:29;;;;;;;;;;;24.40;98.50;;;25.05;59.32;98870.38;4970543;28;123724;-80
2023/08/16 06:11:02;;;;;;;;;;;24.50;98.40;;;25.13;59.53;98875.59;4979752;28;124109;-80
2023/08/16 06:13:28;;;;;;;;;;;24.60;98.40;;;25.22;58.92;98877.22;4992496;28;119458;-80
2023/08/16 06:16:00;;;;;;;;;;;24.60;98.30;;;25.31;59.07;98875.56;4981748;28;118631;-82
2023/08/16 06:18:29;;;;;;;;;;;24.70;98.20;;;25.40;58.44;98872.28;4977841;28;123058;-83
2023/08/16 06:20:58;;;;;;;;;;;24.80;98.20;;;25.48;58.64;98865.38;4977237;28;123490;-81
2023/08/16 06:23:26;;;;;;;;;;;24.90;98.10;;;25.57;58.57;98873.41;4968933;28;118789;-82
2023/08/16 06:25:53;;;;;;;;;;;25.00;98.00;;;25.63;58.13;98882.28;4984151;28;119222;-81
2023/08/16 06:28:22;;;;;;;;;;;25.10;97.90;;;25.70;57.88;98876.59;4986329;28;124876;-82
2023/08/16 06:30:51;;;;;;;;;;;25.10;97.80;;;25.77;57.79;98870.91;4992541;28;123879;-81
2023/08/16 06:33:17;;;;;;;;;;;25.10;97.60;;;25.79;57.80;98872.09;4981201;28;120751;-81
2023/08/16 06:35:46;;;;;;;;;;;25.20;97.50;;;25.82;57.34;98876.13;4979054;28;121081;-82
2023/08/16 06:38:13;;;;;;;;;;;25.30;97.40;;;25.83;57.15;98880.56;4979770;28;124766;-82
2023/08/16 06:40:39;;;;;;;;;;;23.90;96.70;;;25.84;57.35;98885.03;4977036;28;124229;-81
2023/08/16 06:43:06;;;;;;;;;;;25.30;97.20;;;25.84;57.36;98884.22;4981896;28;119357;-80
2023/08/16 06:45:35;;;;;;;;;;;25.40;97.10;;;25.84;57.28;98868.03;4990804;28;118955;-81
2023/08/16 06:48:03;;;;;;;;;;;25.40;97.10;;;25.86;57.04;98874.09;4953261;28;124044;-81
2023/08/16 06:50:29;;;;;;;;;;;25.40;97.00;;;25.89;56.87;98875.28;4974720;28;124936;-81
2023/08/16 06:52:59;;;;;;;;;;;25.50;97.00;;;25.88;56.58;98877.31;4971544;28;119495;-80
2023/08/16 06:55:25;;;;;;;;;;;25.50;96.90;;;25.82;56.90;98878.97;4973925;28;118670;-81
2023/08/16 06:57:51;;;;;;;;;;;25.40;96.80;;;25.77;56.68;98873.72;4970463;28;124232;-81
2023/08/16 07:00:18;;;;;;;;;;;25.30;96.70;;;25.76;56.87;98878.59;4973838;28;124002;-79
2023/08/16 07:02:49;;;;;;;;;;;25.40;96.80;;;25.79;57.01;98880.59;4973804;28;119853;-82
2023/08/16 07:05:25;;;;;;;;;;;25.20;96.80;;;25.86;57.12;98876.94;4978022;28;118776;-78
2023/08/16 07:07:52;;;;;;;;;;;25.40;96.80;;;25.97;56.94;98883.31;4979514;28;124511;-80
2023/08/16 07:10:24;;;;;;;;;;;25.50;96.90;;;26.07;56.64;98880.84;4981781;28;124029;-79
2023/08/16 07:12:50;;;;;;;;;;;25.50;96.80;;;26.16;55.96;98881.19;4983793;28;119725;-79
2023/08/16 07:15:24;;;;;;;;;;;25.60;96.80;;;26.25;56.14;98889.19;4974682;28;118760;-81
2023/08/16 07:17:50;;;;;;;;;;;25.70;96.70;;;26.32;56.25;98884.28;4988777;28;124169;-80
2023/08/16 07:20:17;;;;;;;;;;;25.70;96.60;;;26.40;55.70;98890.69;4968477;28;123618;-79
2023/08/16 07:22:46;;;;;;;;;;;25.80;96.50;;;26.49;55.27;98887.38;4978843;28;120432;-80
2023/08/16 07:25:12;;;;;;;;;;;25.90;96.30;;;26.52;54.87;98881.75;4969125;28;119539;-79
2023/08/16 07:27:39;;;;;;;;;;;25.90;96.10;;;26.53;55.18;98882.53;4972376;28;124605;-79
2023/08/16 07:30:05;;;;;;;;;;;25.90;96.00;;;26.52;55.06;98884.56;4974846;28;124618;-79
2023/08/16 07:32:35;;;;;;;;;;;25.90;96.10;;;26.59;55.19;98886.53;4970054;28;118790;-80
2023/08/16 07:35:01;;;;;;;;;;;26.00;96.10;;;26.68;54.94;98881.19;4969898;28;118932;-80
2023/08/16 07:37:31;;;;;;;;;;;26.10;96.10;;;26.79;54.76;98884.72;4981155;28;123866;-79
2023/08/16 07:40:00;;;;;;;;;;;26.20;96.00;;;26.86;54.25;98881.78;4970551;28;123815;-79
2023/08/16 07:42:29;;;;;;;;;;;26.20;95.80;;;26.91;54.07;98882.56;4969507;28;119632;-79
2023/08/16 07:45:05;;;;;;;;;;;26.30;95.80;;;26.96;53.99;98877.25;4975697;28;119645;-80
2023/08/16 07:47:37;;;;;;;;;;;26.30;95.80;;;27.05;54.16;98885.25;4979236;28;124675;-79
2023/08/16 07:50:06;;;;;;;;;;;26.40;95.70;;;27.06;53.75;98881.22;4981085;28;124534;-81
2023/08/16 07:52:38;;;;;;;;;;;26.40;95.50;;;27.08;53.73;98884.41;4986387;28;118630;-80
2023/08/16 07:55:04;;;;;;;;;;;26.50;95.50;;;27.10;54.11;98887.63;4969341;28;117913;-80
2023/08/16 07:57:31;;;;;;;;;;;26.50;95.40;;;27.18;53.90;98880.69;4982633;28;124251;-80
2023/08/16 08:00:01;;;;;;;;;;;26.60;95.40;;;27.27;53.85;98885.84;4970656;28;123404;-80
2023/08/16 08:02:27;;;;;;;;;;;26.70;95.50;;;27.31;53.42;98881.72;4981902;28;119703;-80
2023/08/16 08:05:05;;;;;;;;;;;26.70;95.20;;;27.31;53.23;98878.91;4990860;28;118767;-80
2023/08/16 08:07:31;;;;;;;;;;;26.70;95.10;;;27.34;53.31;98877.25;4985350;28;124535;-81
2023/08/16 08:10:00;;;;;;;;;;;26.70;95.10;;;27.40;53.21;98877.59;4994721;28;125284;-81
2023/08/16 08:12:46;;;;;;;;;;;26.80;95.10;;;27.43;53.45;98876.72;4989517;28;120400;-80
2023/08/16 08:15:13;;;;;;;;;;;26.80;95.00;;;27.48;53.14;98867.75;4981223;28;118915;-78
2023/08/16 08:17:47;;;;;;;;;;;26.90;95.00;;;27.54;52.98;98872.53;4989919;28;124851;-81
2023/08/16 08:20:14;;;;;;;;;;;27.00;95.00;;;27.59;53.00;98882.59;4976213;28;125397;-80
2023/08/16 08:22:46;;;;;;;;;;;27.00;94.90;;;27.62;52.57;98883.78;4988017;28;118586;-82
2023/08/16 08:25:14;;;;;;;;;;;27.10;95.20;;;27.63;53.03;98877.69;4987798;28;118866;-80
2023/08/16 08:27:49;;;;;;;;;;;27.10;94.90;;;27.64;53.10;98882.13;4985288;28;124402;-83
2023/08/16 08:30:16;;;;;;;;;;;27.10;94.90;;;27.67;53.16;98872.78;4979150;28;124186;-82
2023/08/16 08:32:46;;;;;;;;;;;27.10;94.90;;;27.75;53.11;98879.97;4959514;28;118327;-83
2023/08/16 08:35:15;;;;;;;;;;;27.20;94.90;;;27.83;52.94;98880.69;4979636;28;119028;-84
2023/08/16 08:37:44;;;;;;;;;;;27.30;94.80;;;27.88;52.67;98873.72;4991248;28;124462;-83
2023/08/16 08:40:11;;;;;;;;;;;27.30;94.70;;;27.89;52.80;98873.31;4971289;28;123882;-83
2023/08/16 08:42:37;;;;;;;;;;;27.30;94.70;;;27.95;52.74;98871.59;4978820;28;118468;-84
2023/08/16 08:45:10;;;;;;;;;;;27.40;94.70;;;28.02;52.65;98867.81;4970187;28;118979;-81
2023/08/16 08:47:38;;;;;;;;;;;27.50;94.70;;;28.09;52.48;98870.56;4970280;28;124240;-84
2023/08/16 08:50:11;;;;;;;;;;;27.60;94.60;;;28.16;52.48;98867.63;4967379;28;123912;-84
2023/08/16 08:52:38;;;;;;;;;;;27.60;94.50;;;28.22;52.22;98872.81;4970205;28;118842;-80
2023/08/16 08:55:04;;;;;;;;;;;27.70;94.50;;;28.27;52.10;98869.50;4968590;28;120584;-83
2023/08/16 08:57:34;;;;;;;;;;;27.70;94.40;;;28.33;51.76;98870.59;4973015;28;124442;-82
2023/08/16 09:00:01;;;;;;;;;;;27.80;94.30;;;28.37;51.58;98877.00;4963889;28;123190;-82
2023/08/16 09:02:34;;;;;;;;;;;27.80;94.10;;;28.37;51.73;98877.84;4962248;28;119687;-80
2023/08/16 09:05:05;;;;;;;;;;;27.90;94.10;;;28.41;51.65;98878.56;4979584;28;119007;-80
2023/08/16 09:07:34;;;;;;;;;;;27.90;94.00;;;28.46;51.54;98880.16;4955946;28;123652;-80
2023/08/16 09:10:03;;;;;;;;;;;28.00;94.00;;;28.52;51.69;98866.25;4991934;28;122845;-80
2023/08/16 09:12:50;;;;;;;;;;;28.00;94.00;;;28.57;51.39;98872.25;5002547;28;119087;-80
2023/08/16 09:15:24;;;;;;;;;;;28.10;93.90;;;28.65;51.12;98861.53;4999373;28;118763;-80
2023/08/16 09:17:50;;;;;;;;;;;28.10;93.70;;;28.69;51.00;98870.00;4973598;28;124635;-81
2023/08/16 09:20:18;;;;;;;;;;;28.20;93.60;;;28.70;50.62;98865.94;4979860;28;123900;-81
2023/08/16 09:22:48;;;;;;;;;;;28.20;93.40;;;28.69;50.70;98862.28;4976342;28;119733;-81
2023/08/16 09:25:14;;;;;;;;;;;28.20;93.40;;;28.72;50.76;98858.59;4977204;28;118439;-79
2023/08/16 09:27:40;;;;;;;;;;;28.30;93.40;;;28.72;50.80;98852.06;4980401;28;124652;-79
2023/08/16 09:30:13;;;;;;;;;;;28.30;93.30;;;28.72;50.59;98840.69;4970688;28;123437;-81
2023/08/16 09:32:39;;;;;;;;;;;28.30;93.40;;;28.74;50.69;98838.22;4975410;28;119931;-82
2023/08/16 09:35:17;;;;;;;;;;;28.30;93.40;;;28.75;50.53;98839.84;4971721;28;118647;-85
2023/08/16 09:37:47;;;;;;;;;;;28.30;93.20;;;28.73;50.93;98830.94;4966677;28;123511;-81
2023/08/16 09:40:15;;;;;;;;;;;28.20;93.40;;;28.73;50.79;98839.47;4975180;28;123759;-82
2023/08/16 09:42:41;;;;;;;;;;;28.20;93.30;;;28.71;51.04;98831.38;4989899;28;118899;-80
2023/08/16 09:45:11;;;;;;;;;;;28.20;93.40;;;28.73;50.61;98831.75;4967233;28;118281;-80
2023/08/16 09:47:46;;;;;;;;;;;28.30;93.30;;;28.74;50.51;98827.66;4975743;28;124939;-80
2023/08/16 09:50:15;;;;;;;;;;;28.30;93.30;;;28.79;50.72;98829.19;4987152;28;124358;-81
2023/08/16 09:52:51;;;;;;;;;;;28.30;93.40;;;28.85;50.94;98830.28;4993238;28;120424;-81
2023/08/16 09:55:30;;;;;;;;;;;28.30;93.30;;;28.92;50.71;98820.84;4977712;28;118746;-80
2023/08/16 09:58:02;;;;;;;;;;;28.50;93.30;;;28.98;50.35;98822.72;4957784;28;123444;-79
2023/08/16 10:00:30;;;;;;;;;;;28.50;93.30;;;29.05;50.37;98825.47;4988631;28;123891;-80
2023/08/16 10:02:58;;;;;;;;;;;28.60;93.30;;;29.10;50.48;98826.19;4975387;28;120012;-80
2023/08/16 10:05:27;;;;;;;;;;;28.60;93.20;;;29.15;50.07;98828.50;4989370;28;119554;-79
2023/08/16 10:08:04;;;;;;;;;;;28.60;92.90;;;29.15;49.88;98832.19;4983120;28;124263;-84
2023/08/16 10:10:36;;;;;;;;;;;28.70;92.90;;;29.20;50.24;98819.47;4976024;28;124680;-81
2023/08/16 10:13:02;;;;;;;;;;;28.70;93.00;;;29.26;50.17;98824.22;4985556;28;118722;-80
2023/08/16 10:15:38;;;;;;;;;;;28.80;92.90;;;29.34;50.06;98819.19;4986943;28;118565;-78
2023/08/16 10:18:11;;;;;;;;;;;28.90;92.90;;;29.42;49.80;98814.94;4981474;28;123969;-80
2023/08/16 10:20:41;;;;;;;;;;;28.90;93.10;;;29.45;49.60;98818.94;4987798;28;123929;-81
2023/08/16 10:23:11;;;;;;;;;;;29.00;92.60;;;29.49;48.91;98816.81;4990615;28;119271;-78
2023/08/16 10:25:47;;;;;;;;;;;29.00;92.50;;;29.50;49.45;98819.22;4974314;28;117321;-78
2023/08/16 10:28:33;;;;;;;;;;;29.00;92.50;;;29.53;49.57;98820.41;4978438;28;123166;-79
2023/08/16 10:31:04;;;;;;;;;;;29.10;92.50;;;29.60;49.18;98810.88;4987231;28;123748;-80
2023/08/16 10:33:38;;;;;;;;;;;29.10;92.50;;;29.66;49.60;98824.19;4963376;28;118849;-82
2023/08/16 10:36:12;;;;;;;;;;;29.20;92.50;;;29.73;48.28;98811.81;4971670;28;119772;-80
2023/08/16 10:38:41;;;;;;;;;;;29.20;92.30;;;29.79;48.72;98803.56;4973211;28;124770;-80
2023/08/16 10:41:12;;;;;;;;;;;29.30;92.20;;;29.87;48.32;98802.94;4978031;28;123431;-81
2023/08/16 10:43:49;;;;;;;;;;;29.30;92.10;;;29.94;48.09;98797.06;4966525;28;120577;-82
2023/08/16 10:46:35;;;;;;;;;;;29.40;92.00;;;30.01;47.91;98798.97;4979125;28;119917;-80
2023/08/16 10:49:11;;;;;;;;;;;29.50;91.80;;;30.06;47.94;98794.75;4980963;28;124877;-92
2023/08/16 10:51:50;;;;;;;;;;;30.30;92.10;;;30.08;48.34;98793.06;4965053;28;124442;-81
2023/08/16 10:54:17;;;;;;;;;;;29.60;91.80;;;30.12;48.15;98793.00;4965798;28;119485;-80
2023/08/16 10:56:47;;;;;;;;;;;29.60;91.70;;;30.17;47.63;98795.28;4964259;28;118828;-80
2023/08/16 10:59:14;;;;;;;;;;;29.70;92.00;;;30.22;47.87;98791.91;4966652;28;124428;-80
2023/08/16 11:01:48;;;;;;;;;;;29.70;91.70;;;30.30;48.04;98784.00;4978211;28;123323;-80
2023/08/16 11:04:15;;;;;;;;;;;29.80;91.60;;;30.35;47.25;98789.97;4969430;28;119257;-80
2023/08/16 11:06:41;;;;;;;;;;;29.90;91.30;;;30.40;46.84;98784.97;4974940;28;118784;-80
2023/08/16 11:09:10;;;;;;;;;;;29.90;91.10;;;30.45;46.66;98781.59;4982951;28;124255;-80
2023/08/16 11:11:49;;;;;;;;;;;29.90;91.10;;;30.51;46.92;98782.63;4987851;28;123951;-80
2023/08/16 11:14:25;;;;;;;;;;;30.00;91.10;;;30.60;46.76;98769.34;4972320;28;119172;-79
2023/08/16 11:16:57;;;;;;;;;;;30.10;90.90;;;30.67;46.69;98771.19;4974614;28;119149;-79